Time;durP1;ratioP1;P1;durP2;ratioP2;P2;SDS_P1;SDS_P2;PMS_P1;PMS_P2;Temp;Humidity;BMP_temperature;BMP_pressure;BME280_temperature;BME280_humidity;BME280_pressure;Samples;Min_cycle;Max_cycle;Signal;HPM_P1;HPM_P2
2021/12/12 00:00:17;;;;;;;;;56.50;48.25;;;;;;;;5224660;28;10896;-67
2021/12/12 00:03:00;;;;;;;;;54.00;45.00;;;;;;;;5191105;28;10576;-67
2021/12/12 00:05:36;;;;;;;;;61.00;53.00;;;;;;;;5207325;28;10825;-67
2021/12/12 00:08:07;;;;;;;;;44.25;42.50;;;;;;;;5211055;28;10782;-66
2021/12/12 00:10:39;;;;;;;;;33.50;31.00;;;;;;;;5229255;28;10199;-65
2021/12/12 00:13:22;;;;;;;;;35.75;29.75;;;;;;;;5194772;28;10158;-65
2021/12/12 00:15:53;;;;;;;;;36.50;33.00;;;;;;;;5210966;28;10030;-66
2021/12/12 00:18:24;;;;;;;;;34.00;32.00;;;;;;;;5211048;28;9914;-67
2021/12/12 00:21:16;;;;;;;;;33.67;25.67;;;;;;;;5210363;28;9668;-67
2021/12/12 00:23:47;;;;;;;;;48.75;45.75;;;;;;;;5211514;28;9534;-68
2021/12/12 00:26:18;;;;;;;;;30.25;27.75;;;;;;;;5210707;28;10706;-68
2021/12/12 00:28:50;;;;;;;;;10.67;10.00;;;;;;;;5194287;28;9758;-67
2021/12/12 00:31:23;;;;;;;;;24.67;24.33;;;;;;;;5210682;28;9605;-66
2021/12/12 00:33:56;;;;;;;;;31.00;31.00;;;;;;;;5210568;28;9513;-65
2021/12/12 00:36:28;;;;;;;;;27.33;24.33;;;;;;;;5228870;28;9736;-65
2021/12/12 00:39:02;;;;;;;;;15.67;15.67;;;;;;;;5228259;28;9873;-67
2021/12/12 00:41:45;;;;;;;;;14.67;13.00;;;;;;;;5210468;28;9612;-65
2021/12/12 00:44:18;;;;;;;;;22.00;21.33;;;;;;;;5194178;28;9631;-67
2021/12/12 00:46:50;;;;;;;;;11.67;11.67;;;;;;;;5210641;28;9680;-66
2021/12/12 00:49:22;;;;;;;;;14.33;13.00;;;;;;;;5193991;28;9468;-66
2021/12/12 00:51:55;;;;;;;;;36.33;34.33;;;;;;;;5210327;28;9669;-66
2021/12/12 00:54:31;;;;;;;;;34.50;32.00;;;;;;;;5228095;28;9770;-66
2021/12/12 00:57:05;;;;;;;;;44.00;41.25;;;;;;;;5211066;28;10181;-66
2021/12/12 00:59:37;;;;;;;;;40.25;36.50;;;;;;;;5209883;28;10516;-66
2021/12/12 01:02:13;;;;;;;;;34.75;34.25;;;;;;;;5210181;28;10157;-66
2021/12/12 01:04:46;;;;;;;;;42.00;35.67;;;;;;;;5193508;28;10006;-66
2021/12/12 01:07:20;;;;;;;;;39.50;38.00;;;;;;;;5228052;28;9753;-65
2021/12/12 01:09:53;;;;;;;;;43.00;40.50;;;;;;;;5210066;28;9824;-65
2021/12/12 01:12:28;;;;;;;;;47.75;40.25;;;;;;;;5193290;28;9870;-66
2021/12/12 01:15:04;;;;;;;;;36.00;34.00;;;;;;;;5227832;28;10005;-66
2021/12/12 01:17:41;;;;;;;;;44.25;41.75;;;;;;;;5195203;28;10664;-66
2021/12/12 01:20:20;;;;;;;;;28.33;26.00;;;;;;;;5227524;28;10085;-66
2021/12/12 01:22:52;;;;;;;;;25.00;23.33;;;;;;;;5210052;28;9568;-67
2021/12/12 01:25:26;;;;;;;;;39.00;36.67;;;;;;;;5177688;28;9485;-67
2021/12/12 01:27:57;;;;;;;;;37.00;30.67;;;;;;;;5193059;28;9843;-66
2021/12/12 01:30:29;;;;;;;;;31.25;30.50;;;;;;;;5193758;28;10301;-66
2021/12/12 01:33:01;;;;;;;;;32.75;31.00;;;;;;;;5209659;28;10045;-68
2021/12/12 01:35:33;;;;;;;;;43.50;42.25;;;;;;;;5227388;28;10183;-67
2021/12/12 01:40:57;;;;;;;;;55.00;47.00;;;;;;;;5209771;28;10492;-67
2021/12/12 01:43:37;;;;;;;;;42.25;36.00;;;;;;;;5210007;28;10181;-68
2021/12/12 01:46:29;;;;;;;;;54.25;48.50;;;;;;;;5227947;28;10925;-67
2021/12/12 01:49:16;;;;;;;;;62.75;49.00;;;;;;;;5193074;28;10250;-65
2021/12/12 01:51:47;;;;;;;;;43.50;40.50;;;;;;;;5192904;28;10350;-66
2021/12/12 01:54:21;;;;;;;;;46.75;42.50;;;;;;;;5209063;28;10376;-68
2021/12/12 01:56:58;;;;;;;;;40.75;39.25;;;;;;;;5209482;28;10031;-67
2021/12/12 01:59:32;;;;;;;;;45.00;42.25;;;;;;;;5209020;28;10084;-67
2021/12/12 02:02:14;;;;;;;;;62.25;50.25;;;;;;;;5208997;28;10076;-67
2021/12/12 02:04:47;;;;;;;;;38.25;33.25;;;;;;;;5193385;28;10252;-67
2021/12/12 02:07:23;;;;;;;;;44.75;43.75;;;;;;;;5209860;28;10126;-67
2021/12/12 02:09:58;;;;;;;;;28.50;27.25;;;;;;;;5209623;28;10029;-67
2021/12/12 02:12:29;;;;;;;;;42.50;36.25;;;;;;;;5226893;28;9833;-66
2021/12/12 02:15:02;;;;;;;;;15.00;15.00;;;;;;;;5209063;28;10517;-66
2021/12/12 02:17:39;;;;;;;;;36.25;33.25;;;;;;;;5209581;28;10774;-66
2021/12/12 02:20:31;;;;;;;;;34.50;32.00;;;;;;;;5192073;28;10794;-66
2021/12/12 02:23:22;;;;;;;;;44.00;39.25;;;;;;;;5208638;28;9916;-66
2021/12/12 02:35:25;;;;;;;;;22.00;19.00;;;;;;;;5226174;28;9353;-68
2021/12/12 02:37:59;;;;;;;;;26.33;25.67;;;;;;;;5192096;28;9271;-69
2021/12/12 02:40:33;;;;;;;;;18.33;16.00;;;;;;;;5226162;28;10162;-65
2021/12/12 02:47:34;;;;;;;;;25.67;23.00;;;;;;;;5224614;28;9150;-66
2021/12/12 02:54:28;;;;;;;;;23.00;18.67;;;;;;;;5225868;28;9073;-66
2021/12/12 02:56:59;;;;;;;;;21.67;21.33;;;;;;;;5226255;28;9127;-66
2021/12/12 02:59:31;;;;;;;;;21.33;19.67;;;;;;;;5207959;28;9357;-65
2021/12/12 03:02:06;;;;;;;;;24.33;22.67;;;;;;;;5226450;28;9382;-66
2021/12/12 03:04:38;;;;;;;;;13.67;13.67;;;;;;;;5208204;28;9261;-66
2021/12/12 03:07:10;;;;;;;;;30.33;28.67;;;;;;;;5208065;28;9210;-66
2021/12/12 03:09:43;;;;;;;;;16.00;16.00;;;;;;;;5225737;28;9685;-66
2021/12/12 03:12:17;;;;;;;;;6.00;6.00;;;;;;;;5207300;28;9222;-66
2021/12/12 03:14:49;;;;;;;;;21.67;20.67;;;;;;;;5208430;28;9555;-66
2021/12/12 03:17:23;;;;;;;;;17.33;16.67;;;;;;;;5207816;28;9217;-66
2021/12/12 03:19:56;;;;;;;;;14.33;14.33;;;;;;;;5225466;28;9500;-65
2021/12/12 03:22:28;;;;;;;;;21.00;21.00;;;;;;;;5207955;28;9417;-65
2021/12/12 03:24:59;;;;;;;;;26.33;22.00;;;;;;;;5225852;28;9302;-65
2021/12/12 03:27:30;;;;;;;;;26.33;25.67;;;;;;;;5207421;28;9263;-65
2021/12/12 03:30:21;;;;;;;;;11.67;11.67;;;;;;;;5208175;28;11130;-64
2021/12/12 03:32:52;;;;;;;;;43.67;40.67;;;;;;;;5191628;28;9342;-65
2021/12/12 03:35:45;;;;;;;;;21.33;18.33;;;;;;;;5207707;28;9659;-64
2021/12/12 03:38:16;;;;;;;;;40.00;39.33;;;;;;;;5207411;28;9476;-65
2021/12/12 03:40:49;;;;;;;;;38.75;38.25;;;;;;;;5206868;28;9782;-65
2021/12/12 03:43:20;;;;;;;;;28.67;19.00;;;;;;;;5228943;28;9943;-66
2021/12/12 03:45:52;;;;;;;;;29.67;28.67;;;;;;;;5229315;28;10384;-65
2021/12/12 03:48:28;;;;;;;;;29.67;28.67;;;;;;;;5229464;28;9550;-66
2021/12/12 03:51:19;;;;;;;;;30.67;30.33;;;;;;;;5229500;28;9343;-64
2021/12/12 03:53:50;;;;;;;;;24.67;23.67;;;;;;;;5228902;28;9427;-65
2021/12/12 03:56:42;;;;;;;;;27.00;27.00;;;;;;;;5229169;28;10253;-65
2021/12/12 03:59:14;;;;;;;;;33.00;27.67;;;;;;;;5210798;28;9303;-65
2021/12/12 04:01:47;;;;;;;;;17.33;15.67;;;;;;;;5228024;28;9401;-65
2021/12/12 04:04:21;;;;;;;;;27.67;26.33;;;;;;;;5211032;28;10216;-66
2021/12/12 04:06:53;;;;;;;;;22.00;19.00;;;;;;;;5194991;28;10368;-65
2021/12/12 04:09:24;;;;;;;;;14.33;12.67;;;;;;;;5229291;28;9880;-65
2021/12/12 04:12:00;;;;;;;;;24.00;22.00;;;;;;;;5211140;28;9569;-66
2021/12/12 04:14:32;;;;;;;;;27.67;27.67;;;;;;;;5229097;28;9817;-66
2021/12/12 04:17:07;;;;;;;;;31.50;29.00;;;;;;;;5228414;28;9688;-65
2021/12/12 04:19:38;;;;;;;;;34.75;33.50;;;;;;;;5210339;28;10721;-65
2021/12/12 04:22:11;;;;;;;;;30.25;30.00;;;;;;;;5210908;28;9851;-66
2021/12/12 04:25:01;;;;;;;;;28.25;24.75;;;;;;;;5214067;28;10178;-66
2021/12/12 04:27:35;;;;;;;;;51.75;45.00;;;;;;;;5228493;28;10124;-67
2021/12/12 04:30:09;;;;;;;;;38.00;37.00;;;;;;;;5210520;28;10263;-67
2021/12/12 04:32:40;;;;;;;;;18.25;15.00;;;;;;;;5210608;28;9832;-66
2021/12/12 04:35:30;;;;;;;;;32.00;26.00;;;;;;;;5213372;28;10377;-66
2021/12/12 04:38:03;;;;;;;;;36.25;34.50;;;;;;;;5210489;28;10261;-66
2021/12/12 04:40:53;;;;;;;;;30.75;30.00;;;;;;;;5228318;28;10346;-66
2021/12/12 04:43:24;;;;;;;;;39.25;35.25;;;;;;;;5228060;28;9841;-65
2021/12/12 04:46:08;;;;;;;;;35.75;34.25;;;;;;;;5228184;28;9754;-65
2021/12/12 04:51:50;;;;;;;;;25.00;22.67;;;;;;;;5228355;28;9623;-66
2021/12/12 04:54:21;;;;;;;;;21.67;21.33;;;;;;;;5228341;28;10344;-67
2021/12/12 04:56:55;;;;;;;;;14.33;12.33;;;;;;;;5210246;28;10095;-68
2021/12/12 04:59:27;;;;;;;;;22.00;18.67;;;;;;;;5210203;28;9427;-68
2021/12/12 05:02:26;;;;;;;;;15.67;14.33;;;;;;;;5209851;28;9427;-68
2021/12/12 05:05:10;;;;;;;;;22.25;20.50;;;;;;;;5209519;28;9283;-66
2021/12/12 05:08:00;;;;;;;;;13.75;13.75;;;;;;;;5209419;28;9908;-66
2021/12/12 05:10:41;;;;;;;;;37.75;34.50;;;;;;;;5227481;28;10077;-66
2021/12/12 05:17:43;;;;;;;;;37.50;34.50;;;;;;;;5227489;28;9845;-70
2021/12/12 05:20:17;;;;;;;;;32.67;32.67;;;;;;;;5210112;28;10127;-67
2021/12/12 05:22:51;;;;;;;;;24.67;24.67;;;;;;;;5193825;28;9782;-67
2021/12/12 05:25:28;;;;;;;;;28.00;24.67;;;;;;;;5193174;28;9676;-67
2021/12/12 05:28:01;;;;;;;;;24.33;22.67;;;;;;;;5210227;28;9675;-68
2021/12/12 05:30:34;;;;;;;;;37.50;34.75;;;;;;;;5209945;28;10362;-67
2021/12/12 05:33:06;;;;;;;;;50.50;45.50;;;;;;;;5209449;28;10619;-67
2021/12/12 05:35:40;;;;;;;;;35.50;33.75;;;;;;;;5209709;28;11040;-68
2021/12/12 05:38:12;;;;;;;;;55.50;48.00;;;;;;;;5227281;28;10312;-68
2021/12/12 05:40:45;;;;;;;;;52.75;47.00;;;;;;;;5226483;28;10427;-68
2021/12/12 05:47:39;;;;;;;;;33.25;31.00;;;;;;;;5226704;28;10525;-68
2021/12/12 05:50:12;;;;;;;;;16.67;16.67;;;;;;;;5209510;28;10084;-69
2021/12/12 05:52:46;;;;;;;;;10.00;10.00;;;;;;;;5227165;28;9687;-69
2021/12/12 05:55:17;;;;;;;;;19.00;18.33;;;;;;;;5208768;28;9420;-68
2021/12/12 05:57:54;;;;;;;;;21.00;16.67;;;;;;;;5176591;28;9353;-68
2021/12/12 06:00:32;;;;;;;;;30.00;26.00;;;;;;;;5193402;28;10298;-68
2021/12/12 06:03:07;;;;;;;;;9.75;4.00;;;;;;;;5210286;28;10046;-69
2021/12/12 06:05:38;;;;;;;;;74.75;54.50;;;;;;;;5225511;28;10077;-69
2021/12/12 06:12:33;;;;;;;;;45.50;40.25;;;;;;;;5227238;28;11545;-68
2021/12/12 06:15:08;;;;;;;;;42.25;39.75;;;;;;;;5177233;28;11029;-67
2021/12/12 06:17:39;;;;;;;;;47.00;39.75;;;;;;;;5226533;28;10501;-68
2021/12/12 06:20:11;;;;;;;;;32.75;30.25;;;;;;;;5191686;28;10220;-68
2021/12/12 06:22:42;;;;;;;;;41.75;40.25;;;;;;;;5175549;28;10242;-69
2021/12/12 06:25:14;;;;;;;;;81.00;64.25;;;;;;;;5208597;28;10353;-68
2021/12/12 06:32:11;;;;;;;;;93.00;69.75;;;;;;;;5225584;28;11502;-70
2021/12/12 06:34:42;;;;;;;;;70.50;54.50;;;;;;;;5191385;28;11578;-68
2021/12/12 06:37:13;;;;;;;;;70.50;54.75;;;;;;;;5226114;28;12291;-68
2021/12/12 06:39:44;;;;;;;;;47.75;44.50;;;;;;;;5226088;28;8787;-68
2021/12/12 06:42:16;;;;;;;;;32.75;28.25;;;;;;;;5208175;28;10652;-69
2021/12/12 06:44:48;;;;;;;;;69.75;54.75;;;;;;;;5208126;28;10470;-69
2021/12/12 06:47:19;;;;;;;;;72.75;56.00;;;;;;;;5226213;28;11107;-69
2021/12/12 06:49:50;;;;;;;;;75.25;53.00;;;;;;;;5225290;28;12283;-68
2021/12/12 06:56:47;;;;;;;;;48.50;46.75;;;;;;;;5225844;28;10925;-69
2021/12/12 07:03:44;;;;;;;;;62.25;51.25;;;;;;;;5226243;28;10577;-68
2021/12/12 07:06:20;;;;;;;;;90.00;71.00;;;;;;;;5226082;28;11010;-69
2021/12/12 07:08:52;;;;;;;;;90.50;69.50;;;;;;;;5226049;28;11620;-68
2021/12/12 07:11:25;;;;;;;;;40.50;40.00;;;;;;;;5208758;28;12298;-69
2021/12/12 07:13:57;;;;;;;;;39.25;36.25;;;;;;;;5191417;28;10760;-67
2021/12/12 07:20:53;;;;;;;;;35.75;34.50;;;;;;;;5225438;28;9614;-68
2021/12/12 07:27:50;;;;;;;;;27.67;26.67;;;;;;;;5225492;28;9485;-68
2021/12/12 07:30:21;;;;;;;;;29.50;24.50;;;;;;;;5191439;28;9485;-68
2021/12/12 07:32:52;;;;;;;;;40.67;37.33;;;;;;;;5207557;28;10709;-68
2021/12/12 07:35:23;;;;;;;;;24.67;23.67;;;;;;;;5206908;28;8819;-68
2021/12/12 07:37:54;;;;;;;;;51.50;46.50;;;;;;;;5224668;28;9589;-69
2021/12/12 07:40:26;;;;;;;;;42.50;37.25;;;;;;;;5206844;28;11596;-69
2021/12/12 07:42:57;;;;;;;;;28.33;28.33;;;;;;;;5207114;28;10024;-69
2021/12/12 07:45:29;;;;;;;;;34.00;33.00;;;;;;;;5207295;28;10442;-69
2021/12/12 07:48:00;;;;;;;;;75.00;60.25;;;;;;;;5207686;28;9704;-70
2021/12/12 07:50:32;;;;;;;;;54.00;46.75;;;;;;;;5190831;28;11312;-70
2021/12/12 07:53:03;;;;;;;;;47.50;42.50;;;;;;;;5207200;28;10498;-70
2021/12/12 07:55:35;;;;;;;;;59.00;49.75;;;;;;;;5190811;28;10412;-67
2021/12/12 07:58:08;;;;;;;;;67.50;53.75;;;;;;;;5207670;28;10096;-69
2021/12/12 08:00:41;;;;;;;;;62.25;52.75;;;;;;;;5207704;28;10680;-69
2021/12/12 08:03:16;;;;;;;;;41.00;35.50;;;;;;;;5175393;28;10305;-69
2021/12/12 08:05:49;;;;;;;;;47.50;44.50;;;;;;;;5191357;28;10096;-70
2021/12/12 08:08:24;;;;;;;;;88.50;66.25;;;;;;;;5191150;28;10445;-69
2021/12/12 08:10:56;;;;;;;;;88.25;61.00;;;;;;;;5207998;28;11339;-69
2021/12/12 08:17:53;;;;;;;;;99.00;75.00;;;;;;;;5224452;28;11452;-69
2021/12/12 08:25:02;;;;;;;;;35.75;34.25;;;;;;;;5183814;28;11842;-69
2021/12/12 08:27:34;;;;;;;;;45.00;37.50;;;;;;;;5151655;28;10160;-70
2021/12/12 08:30:05;;;;;;;;;61.50;50.50;;;;;;;;5153691;28;10669;-68
2021/12/12 08:32:37;;;;;;;;;12.75;8.50;;;;;;;;5187849;28;10767;-69
2021/12/12 08:35:10;;;;;;;;;54.50;47.50;;;;;;;;5187672;28;10198;-68
2021/12/12 08:37:43;;;;;;;;;38.00;33.67;;;;;;;;5186643;28;9736;-67
2021/12/12 08:40:18;;;;;;;;;61.00;52.50;;;;;;;;5153655;28;9897;-67
2021/12/12 08:42:50;;;;;;;;;66.25;54.25;;;;;;;;5169704;28;10939;-68
2021/12/12 08:45:23;;;;;;;;;93.00;70.25;;;;;;;;5186972;28;10837;-69
2021/12/12 08:47:55;;;;;;;;;77.50;62.75;;;;;;;;5137049;28;11641;-68
2021/12/12 08:50:28;;;;;;;;;86.50;65.50;;;;;;;;5153307;28;11174;-67
2021/12/12 08:57:33;;;;;;;;;91.50;66.50;;;;;;;;5186468;28;11013;-68
2021/12/12 09:00:08;;;;;;;;;92.50;66.75;;;;;;;;5185655;28;11151;-68
2021/12/12 09:02:39;;;;;;;;;79.50;61.25;;;;;;;;5187025;28;11531;-67
2021/12/12 09:05:13;;;;;;;;;88.75;68.25;;;;;;;;5169179;28;11548;-68
2021/12/12 09:07:47;;;;;;;;;78.25;63.00;;;;;;;;5185479;28;8814;-68
2021/12/12 09:10:26;;;;;;;;;77.50;59.00;;;;;;;;5168340;28;11324;-68
2021/12/12 09:13:05;;;;;;;;;75.25;62.50;;;;;;;;5169866;28;10879;-67
2021/12/12 09:15:46;;;;;;;;;88.75;68.75;;;;;;;;5168627;28;10802;-67
2021/12/12 09:18:20;;;;;;;;;90.50;70.25;;;;;;;;5169641;28;11830;-68
2021/12/12 09:20:58;;;;;;;;;99.25;78.75;;;;;;;;5152454;28;11258;-68
2021/12/12 09:23:52;;;;;;;;;109.75;80.50;;;;;;;;5181771;28;11532;-69
2021/12/12 09:26:24;;;;;;;;;114.50;84.00;;;;;;;;5206706;28;11597;-67
2021/12/12 09:33:41;;;;;;;;;73.75;62.75;;;;;;;;5206595;28;11537;-69
2021/12/12 09:36:17;;;;;;;;;76.75;62.50;;;;;;;;5181065;28;11172;-70
2021/12/12 09:43:31;;;;;;;;;38.75;37.50;;;;;;;;5206491;28;10285;-68
2021/12/12 09:46:18;;;;;;;;;62.75;52.00;;;;;;;;5189375;28;9745;-68
2021/12/12 09:51:46;;;;;;;;;46.67;43.33;;;;;;;;5206597;28;9682;-68
2021/12/12 09:54:39;;;;;;;;;36.33;33.67;;;;;;;;5172864;28;9448;-68
2021/12/12 09:57:34;;;;;;;;;26.33;25.33;;;;;;;;5189415;28;9264;-69
2021/12/12 10:00:23;;;;;;;;;30.50;30.00;;;;;;;;5145510;28;9050;-68
2021/12/12 10:03:08;;;;;;;;;62.33;51.33;;;;;;;;5205033;28;8863;-69
2021/12/12 10:05:49;;;;;;;;;40.67;36.67;;;;;;;;5204960;28;9305;-68
2021/12/12 10:08:20;;;;;;;;;34.25;33.50;;;;;;;;5204947;28;9197;-69
2021/12/12 10:10:51;;;;;;;;;37.33;31.67;;;;;;;;5188921;28;8788;-68
2021/12/12 10:13:30;;;;;;;;;18.00;16.00;;;;;;;;5205942;28;9310;-69
2021/12/12 10:16:05;;;;;;;;;32.33;30.67;;;;;;;;5204740;28;8792;-69
2021/12/12 10:18:55;;;;;;;;;42.33;37.00;;;;;;;;5171861;28;9053;-68
2021/12/12 10:22:10;;;;;;;;;28.00;28.00;;;;;;;;5205429;28;9327;-68
2021/12/12 10:24:50;;;;;;;;;21.25;19.50;;;;;;;;5194884;28;9692;-69
2021/12/12 10:27:30;;;;;;;;;39.00;38.67;;;;;;;;5171772;28;8846;-68
2021/12/12 10:30:08;;;;;;;;;42.67;41.33;;;;;;;;5188462;28;9101;-69
2021/12/12 10:32:54;;;;;;;;;35.67;34.33;;;;;;;;5204840;28;9416;-70
2021/12/12 10:35:35;;;;;;;;;34.00;33.00;;;;;;;;5204018;28;9989;-70
2021/12/12 10:38:26;;;;;;;;;34.67;32.67;;;;;;;;5203885;28;8860;-70
2021/12/12 10:41:01;;;;;;;;;26.67;25.33;;;;;;;;5187686;28;9090;-70
2021/12/12 10:43:49;;;;;;;;;34.00;34.00;;;;;;;;5203258;28;8941;-69
2021/12/12 10:46:23;;;;;;;;;33.00;33.00;;;;;;;;5187689;28;9044;-68
2021/12/12 10:49:13;;;;;;;;;35.67;33.67;;;;;;;;5171292;28;8976;-68
2021/12/12 10:51:47;;;;;;;;;42.33;40.00;;;;;;;;5186963;28;9227;-68
2021/12/12 10:54:38;;;;;;;;;38.33;38.33;;;;;;;;5187671;28;9267;-69
2021/12/12 10:57:15;;;;;;;;;34.67;32.33;;;;;;;;5205102;28;9294;-69
2021/12/12 10:59:52;;;;;;;;;36.50;33.75;;;;;;;;5204252;28;8887;-69
2021/12/12 11:02:29;;;;;;;;;41.00;37.33;;;;;;;;5171399;28;8773;-69
2021/12/12 11:05:17;;;;;;;;;20.00;18.33;;;;;;;;5187244;28;9194;-70
2021/12/12 11:08:02;;;;;;;;;40.00;37.67;;;;;;;;5204134;28;9502;-69
2021/12/12 11:10:35;;;;;;;;;39.67;39.67;;;;;;;;5170693;28;9038;-69
2021/12/12 11:13:19;;;;;;;;;47.67;44.33;;;;;;;;5171046;28;9181;-67
2021/12/12 11:15:53;;;;;;;;;66.00;53.33;;;;;;;;5204150;28;9508;-70
2021/12/12 11:18:31;;;;;;;;;51.50;46.75;;;;;;;;5170895;28;10297;-69
2021/12/12 11:21:08;;;;;;;;;61.25;50.75;;;;;;;;5203791;28;9946;-68
2021/12/12 11:24:00;;;;;;;;;70.50;59.00;;;;;;;;5189029;28;10093;-68
2021/12/12 11:26:40;;;;;;;;;95.75;71.75;;;;;;;;5203726;28;10251;-69
2021/12/12 11:29:15;;;;;;;;;88.50;67.75;;;;;;;;5186982;28;11673;-69
2021/12/12 11:36:13;;;;;;;;;114.75;98.25;;;;;;;;5204033;28;12297;-67
2021/12/12 11:43:10;;;;;;;;;97.50;76.00;;;;;;;;5245852;28;11665;-68
2021/12/12 11:45:43;;;;;;;;;72.50;57.50;;;;;;;;5210809;28;11667;-68
2021/12/12 11:48:25;;;;;;;;;91.25;66.25;;;;;;;;5244855;28;11674;-69
2021/12/12 11:50:59;;;;;;;;;71.50;56.75;;;;;;;;5227527;28;10682;-69
2021/12/12 11:53:40;;;;;;;;;43.67;39.33;;;;;;;;5228419;28;10224;-69
2021/12/12 11:56:29;;;;;;;;;63.50;50.50;;;;;;;;5245982;28;9635;-68
2021/12/12 11:59:15;;;;;;;;;55.33;49.00;;;;;;;;5244597;28;9840;-69
2021/12/12 12:01:46;;;;;;;;;63.75;51.00;;;;;;;;5227503;28;10342;-69
2021/12/12 12:04:17;;;;;;;;;37.00;34.00;;;;;;;;5247731;28;9800;-70
2021/12/12 12:07:19;;;;;;;;;50.00;39.50;;;;;;;;5233854;28;8903;-68
2021/12/12 12:09:53;;;;;;;;;19.67;19.33;;;;;;;;5215114;28;10076;-68
2021/12/12 12:12:50;;;;;;;;;54.50;44.50;;;;;;;;5215824;28;9707;-68
2021/12/12 12:15:30;;;;;;;;;44.00;43.33;;;;;;;;5233263;28;10063;-70
2021/12/12 12:18:16;;;;;;;;;51.67;45.00;;;;;;;;5210882;28;10328;-69
2021/12/12 12:21:16;;;;;;;;;48.00;43.67;;;;;;;;5210775;28;9667;-69
2021/12/12 12:33:01;;;;;;;;;32.00;31.00;;;;;;;;5207418;28;9812;-69
2021/12/12 12:35:50;;;;;;;;;38.75;36.25;;;;;;;;5189864;28;10711;-69
2021/12/12 12:38:24;;;;;;;;;50.50;47.00;;;;;;;;5190621;28;10325;-68
2021/12/12 12:41:14;;;;;;;;;63.50;51.75;;;;;;;;5206347;28;10267;-69
2021/12/12 12:44:11;;;;;;;;;74.75;59.25;;;;;;;;5174011;28;8842;-69
2021/12/12 12:47:00;;;;;;;;;87.00;66.50;;;;;;;;5184247;28;10726;-69
2021/12/12 12:49:46;;;;;;;;;73.50;61.25;;;;;;;;5206296;28;11551;-68
2021/12/12 12:52:54;;;;;;;;;76.00;59.50;;;;;;;;5207211;28;12232;-69
2021/12/12 12:55:31;;;;;;;;;73.50;55.50;;;;;;;;5173703;28;11300;-69
2021/12/12 12:58:23;;;;;;;;;58.00;50.25;;;;;;;;5192944;28;12047;-70
2021/12/12 13:00:58;;;;;;;;;63.50;51.75;;;;;;;;5173830;28;10745;-69
2021/12/12 13:03:35;;;;;;;;;72.50;59.00;;;;;;;;5189572;28;10548;-69
2021/12/12 13:06:27;;;;;;;;;54.00;47.50;;;;;;;;5173239;28;10574;-70
2021/12/12 13:13:29;;;;;;;;;76.25;59.50;;;;;;;;5206235;28;11713;-69
2021/12/12 13:16:03;;;;;;;;;55.25;49.25;;;;;;;;5172839;28;10478;-70
2021/12/12 13:18:49;;;;;;;;;41.33;39.67;;;;;;;;5173349;28;10096;-68
2021/12/12 13:21:26;;;;;;;;;33.33;30.00;;;;;;;;5189940;28;9712;-69
2021/12/12 13:24:06;;;;;;;;;48.67;46.00;;;;;;;;5190333;28;9485;-69
2021/12/12 13:26:58;;;;;;;;;46.33;37.67;;;;;;;;5220250;28;9696;-68
2021/12/12 13:29:48;;;;;;;;;33.67;33.67;;;;;;;;5197368;28;9364;-68
2021/12/12 13:32:27;;;;;;;;;25.00;16.00;;;;;;;;5230864;28;9542;-69
2021/12/12 13:35:04;;;;;;;;;40.00;37.67;;;;;;;;5230660;28;9335;-69
2021/12/12 13:37:38;;;;;;;;;45.67;42.00;;;;;;;;5197609;28;9137;-69
2021/12/12 13:44:41;;;;;;;;;35.00;29.25;;;;;;;;5248140;28;8873;-68
2021/12/12 13:47:21;;;;;;;;;39.33;39.00;;;;;;;;5197592;28;9629;-68
2021/12/12 13:49:52;;;;;;;;;25.33;25.33;;;;;;;;5197266;28;9051;-68
2021/12/12 13:52:32;;;;;;;;;45.67;43.00;;;;;;;;5247789;28;9046;-68
2021/12/12 13:55:10;;;;;;;;;54.33;42.33;;;;;;;;5213800;28;8927;-68
2021/12/12 13:57:56;;;;;;;;;54.00;45.67;;;;;;;;5197065;28;9765;-68
2021/12/12 14:00:28;;;;;;;;;37.67;36.00;;;;;;;;5229866;28;9451;-69
2021/12/12 14:03:06;;;;;;;;;35.67;34.33;;;;;;;;5196682;28;9142;-68
2021/12/12 14:05:43;;;;;;;;;50.67;45.00;;;;;;;;5230377;28;8961;-68
2021/12/12 14:08:16;;;;;;;;;35.25;30.75;;;;;;;;5247851;28;9150;-69
2021/12/12 14:11:03;;;;;;;;;20.00;19.75;;;;;;;;5214098;28;8822;-68
2021/12/12 14:13:36;;;;;;;;;11.00;11.00;;;;;;;;5230313;28;8810;-69
2021/12/12 14:16:18;;;;;;;;;20.25;17.25;;;;;;;;5213226;28;8815;-68
2021/12/12 14:18:51;;;;;;;;;26.00;23.50;;;;;;;;5229683;28;9685;-68
2021/12/12 14:21:22;;;;;;;;;25.50;24.00;;;;;;;;5196441;28;8824;-70
2021/12/12 14:23:53;;;;;;;;;22.00;21.50;;;;;;;;5229361;28;8918;-69
2021/12/12 14:26:28;;;;;;;;;30.33;30.33;;;;;;;;5229187;28;9062;-69
2021/12/12 14:29:00;;;;;;;;;18.50;18.00;;;;;;;;5196461;28;8789;-69
2021/12/12 14:31:33;;;;;;;;;16.00;16.00;;;;;;;;5229085;28;9523;-69
2021/12/12 14:34:12;;;;;;;;;25.50;25.50;;;;;;;;5196394;28;8870;-69
2021/12/12 14:36:46;;;;;;;;;51.75;45.75;;;;;;;;5212700;28;8788;-69
2021/12/12 14:39:17;;;;;;;;;95.75;74.50;;;;;;;;5195576;28;8854;-68
2021/12/12 14:42:00;;;;;;;;;236.50;171.00;;;;;;;;5212098;28;10756;-69
2021/12/12 14:44:34;;;;;;;;;38.25;32.50;;;;;;;;5195937;28;11602;-69
2021/12/12 14:47:07;;;;;;;;;33.50;33.00;;;;;;;;5195626;28;8808;-69
2021/12/12 14:49:41;;;;;;;;;51.75;45.00;;;;;;;;5229012;28;8834;-69
2021/12/12 14:52:23;;;;;;;;;46.00;43.00;;;;;;;;5195701;28;8768;-69
2021/12/12 14:54:57;;;;;;;;;29.50;28.00;;;;;;;;5228915;28;9000;-69
2021/12/12 14:57:33;;;;;;;;;16.00;16.00;;;;;;;;5246616;28;8780;-70
2021/12/12 15:00:16;;;;;;;;;18.25;15.25;;;;;;;;5212769;28;8765;-69
2021/12/12 15:02:47;;;;;;;;;22.25;21.75;;;;;;;;5229413;28;8768;-69
2021/12/12 15:05:21;;;;;;;;;43.25;40.50;;;;;;;;5229093;28;9436;-69
2021/12/12 15:12:28;;;;;;;;;43.67;42.00;;;;;;;;5246289;28;8736;-69
2021/12/12 15:20:04;;;;;;;;;40.67;40.00;;;;;;;;5225735;28;9360;-69
2021/12/12 15:22:37;;;;;;;;;32.50;29.25;;;;;;;;5208242;28;8968;-68
2021/12/12 15:29:44;;;;;;;;;31.67;31.67;;;;;;;;5185004;28;8863;-69
2021/12/12 15:32:18;;;;;;;;;15.25;13.50;;;;;;;;5167462;28;9163;-70
2021/12/12 15:34:52;;;;;;;;;7.50;7.50;;;;;;;;5152646;28;8795;-71
2021/12/12 15:37:28;;;;;;;;;6.00;6.00;;;;;;;;5169844;28;8795;-68
2021/12/12 15:40:08;;;;;;;;;14.50;14.25;;;;;;;;5188596;28;8872;-69
2021/12/12 15:42:41;;;;;;;;;11.75;10.50;;;;;;;;5155568;28;9457;-69
2021/12/12 15:45:17;;;;;;;;;13.75;13.75;;;;;;;;5155550;28;8787;-69
2021/12/12 15:47:49;;;;;;;;;15.00;15.00;;;;;;;;5188756;28;9400;-69
2021/12/12 15:50:20;;;;;;;;;33.50;32.50;;;;;;;;5188897;28;8791;-69
2021/12/12 15:53:01;;;;;;;;;55.50;45.50;;;;;;;;5171370;28;8794;-68
2021/12/12 15:55:35;;;;;;;;;106.75;78.75;;;;;;;;5172061;28;10822;-70
2021/12/12 15:58:15;;;;;;;;;96.50;70.25;;;;;;;;5187097;28;11537;-69
2021/12/12 16:00:48;;;;;;;;;78.75;61.00;;;;;;;;5171106;28;11580;-69
2021/12/12 16:03:24;;;;;;;;;61.25;48.25;;;;;;;;5186971;28;10761;-69
2021/12/12 16:05:57;;;;;;;;;48.67;37.33;;;;;;;;5170571;28;10030;-69
2021/12/12 16:08:36;;;;;;;;;22.25;22.25;;;;;;;;5187266;28;9152;-68
2021/12/12 16:11:14;;;;;;;;;18.25;18.25;;;;;;;;5187082;28;8818;-68
2021/12/12 16:13:47;;;;;;;;;24.00;24.00;;;;;;;;5154645;28;8819;-68
2021/12/12 16:16:20;;;;;;;;;27.00;26.00;;;;;;;;5186832;28;8941;-68
2021/12/12 16:18:56;;;;;;;;;11.25;11.25;;;;;;;;5186690;28;8899;-69
2021/12/12 16:21:28;;;;;;;;;23.25;23.25;;;;;;;;5170904;28;9624;-69
2021/12/12 16:24:01;;;;;;;;;19.25;19.25;;;;;;;;5170753;28;8865;-69
2021/12/12 16:26:40;;;;;;;;;43.00;39.67;;;;;;;;5186920;28;8779;-68
2021/12/12 16:29:16;;;;;;;;;20.33;19.67;;;;;;;;5190682;28;9198;-68
2021/12/12 16:31:48;;;;;;;;;17.50;17.50;;;;;;;;5229173;28;9033;-69
2021/12/12 16:34:21;;;;;;;;;21.50;21.25;;;;;;;;5194490;28;9474;-68
2021/12/12 16:36:55;;;;;;;;;13.50;13.25;;;;;;;;5210954;28;8755;-70
2021/12/12 16:39:32;;;;;;;;;15.00;15.00;;;;;;;;5195049;28;8883;-67
2021/12/12 16:42:05;;;;;;;;;16.00;16.00;;;;;;;;5210989;28;8803;-67
2021/12/12 16:44:41;;;;;;;;;23.00;21.75;;;;;;;;5229251;28;8801;-68
2021/12/12 16:47:27;;;;;;;;;36.75;33.75;;;;;;;;5229290;28;8906;-69
2021/12/12 16:50:00;;;;;;;;;31.00;27.33;;;;;;;;5210237;28;8787;-68
2021/12/12 16:52:33;;;;;;;;;42.67;38.67;;;;;;;;5177927;28;8953;-69
2021/12/12 16:55:14;;;;;;;;;12.75;9.00;;;;;;;;5177889;28;9349;-69
2021/12/12 16:57:46;;;;;;;;;12.00;11.50;;;;;;;;5229158;28;9537;-69
2021/12/12 17:00:39;;;;;;;;;13.00;13.00;;;;;;;;5228927;28;8837;-68
2021/12/12 17:03:17;;;;;;;;;9.50;9.50;;;;;;;;5193935;28;8799;-69
2021/12/12 17:10:16;;;;;;;;;40.00;39.33;;;;;;;;5228059;28;8711;-68
2021/12/12 17:12:49;;;;;;;;;27.33;25.00;;;;;;;;5228122;28;9210;-68
2021/12/12 17:15:22;;;;;;;;;39.00;36.00;;;;;;;;5177533;28;9361;-68
2021/12/12 17:21:48;;;;;;;;;23.75;23.50;;;;;;;;5210231;28;9064;-67
2021/12/12 17:28:48;;;;;;;;;31.33;31.33;;;;;;;;5227743;28;8791;-68
2021/12/12 17:31:40;;;;;;;;;36.33;34.67;;;;;;;;5210068;28;9040;-68
2021/12/12 17:34:40;;;;;;;;;26.33;22.67;;;;;;;;5196637;28;9548;-68
2021/12/12 17:37:16;;;;;;;;;32.33;32.33;;;;;;;;5193637;28;9685;-68